sensor_id;sensor_type;location;lat;lon;timestamp;temperature;humidity
47540;DHT22;33280;52.152;21.052;2022-09-09T00:01:32;12.00;99.90
47540;DHT22;33280;52.152;21.052;2022-09-09T00:04:18;11.90;99.90
47540;DHT22;33280;52.152;21.052;2022-09-09T00:07:09;11.90;99.90
47540;DHT22;33280;52.152;21.052;2022-09-09T00:09:50;11.70;99.90
47540;DHT22;33280;52.152;21.052;2022-09-09T00:16:24;11.60;99.90
47540;DHT22;33280;52.152;21.052;2022-09-09T00:30:31;11.40;99.90
47540;DHT22;33280;52.152;21.052;2022-09-09T00:33:25;11.40;99.90
47540;DHT22;33280;52.152;21.052;2022-09-09T00:36:13;11.40;99.90
47540;DHT22;33280;52.152;21.052;2022-09-09T00:38:52;11.30;99.90
47540;DHT22;33280;52.152;21.052;2022-09-09T00:48:03;11.30;99.90
47540;DHT22;33280;52.152;21.052;2022-09-09T00:50:48;11.30;99.90
47540;DHT22;33280;52.152;21.052;2022-09-09T00:53:32;11.30;99.90
47540;DHT22;33280;52.152;21.052;2022-09-09T00:56:21;11.30;99.90
47540;DHT22;33280;52.152;21.052;2022-09-09T01:01:37;11.40;99.90
47540;DHT22;33280;52.152;21.052;2022-09-09T01:04:13;11.40;99.90
47540;DHT22;33280;52.152;21.052;2022-09-09T01:06:45;11.30;99.90
47540;DHT22;33280;52.152;21.052;2022-09-09T01:09:54;11.40;99.90
47540;DHT22;33280;52.152;21.052;2022-09-09T01:17:46;11.40;99.90
47540;DHT22;33280;52.152;21.052;2022-09-09T01:20:24;11.40;99.90
47540;DHT22;33280;52.152;21.052;2022-09-09T01:28:21;11.40;99.90
47540;DHT22;33280;52.152;21.052;2022-09-09T01:30:49;11.40;99.90
47540;DHT22;33280;52.152;21.052;2022-09-09T01:33:18;11.50;99.90
47540;DHT22;33280;52.152;21.052;2022-09-09T01:38:31;11.30;99.90
47540;DHT22;33280;52.152;21.052;2022-09-09T01:40:59;11.40;99.90
47540;DHT22;33280;52.152;21.052;2022-09-09T01:43:28;11.40;99.90
47540;DHT22;33280;52.152;21.052;2022-09-09T01:45:59;11.50;99.90
47540;DHT22;33280;52.152;21.052;2022-09-09T01:48:27;11.40;99.90
47540;DHT22;33280;52.152;21.052;2022-09-09T01:50:59;11.50;99.90
47540;DHT22;33280;52.152;21.052;2022-09-09T01:53:27;11.50;99.90
47540;DHT22;33280;52.152;21.052;2022-09-09T01:56:14;11.50;99.90
47540;DHT22;33280;52.152;21.052;2022-09-09T02:02:09;11.40;99.90
47540;DHT22;33280;52.152;21.052;2022-09-09T02:04:40;11.50;99.90
47540;DHT22;33280;52.152;21.052;2022-09-09T02:07:38;11.50;99.90
47540;DHT22;33280;52.152;21.052;2022-09-09T02:12:44;11.50;99.90
47540;DHT22;33280;52.152;21.052;2022-09-09T02:15:23;11.50;99.90
47540;DHT22;33280;52.152;21.052;2022-09-09T02:18:01;11.60;99.90
47540;DHT22;33280;52.152;21.052;2022-09-09T02:20:34;11.60;99.90
47540;DHT22;33280;52.152;21.052;2022-09-09T02:23:10;11.70;99.90
47540;DHT22;33280;52.152;21.052;2022-09-09T02:25:49;11.60;99.90
47540;DHT22;33280;52.152;21.052;2022-09-09T02:28:19;11.60;99.90
47540;DHT22;33280;52.152;21.052;2022-09-09T02:30:49;11.70;99.90
47540;DHT22;33280;52.152;21.052;2022-09-09T02:33:30;11.70;99.90
47540;DHT22;33280;52.152;21.052;2022-09-09T02:35:59;11.60;99.90
47540;DHT22;33280;52.152;21.052;2022-09-09T02:38:35;11.70;99.90
47540;DHT22;33280;52.152;21.052;2022-09-09T02:41:04;11.70;99.90
47540;DHT22;33280;52.152;21.052;2022-09-09T02:43:34;11.60;99.90
47540;DHT22;33280;52.152;21.052;2022-09-09T02:48:51;11.60;99.90
47540;DHT22;33280;52.152;21.052;2022-09-09T02:51:28;11.60;99.90
47540;DHT22;33280;52.152;21.052;2022-09-09T02:54:09;11.60;99.90
47540;DHT22;33280;52.152;21.052;2022-09-09T02:56:41;11.70;99.90
47540;DHT22;33280;52.152;21.052;2022-09-09T02:59:10;11.60;99.90
47540;DHT22;33280;52.152;21.052;2022-09-09T03:01:38;11.60;99.90
47540;DHT22;33280;52.152;21.052;2022-09-09T03:04:06;11.70;99.90
47540;DHT22;33280;52.152;21.052;2022-09-09T03:06:47;11.60;99.90
47540;DHT22;33280;52.152;21.052;2022-09-09T03:09:18;11.60;99.90
47540;DHT22;33280;52.152;21.052;2022-09-09T03:11:45;11.60;99.90
47540;DHT22;33280;52.152;21.052;2022-09-09T03:14:12;11.60;99.90
47540;DHT22;33280;52.152;21.052;2022-09-09T03:16:39;11.60;99.90
47540;DHT22;33280;52.152;21.052;2022-09-09T03:19:06;11.60;99.90
47540;DHT22;33280;52.152;21.052;2022-09-09T03:21:33;11.60;99.90
47540;DHT22;33280;52.152;21.052;2022-09-09T03:24:06;11.70;99.90
47540;DHT22;33280;52.152;21.052;2022-09-09T03:26:43;11.60;99.90
47540;DHT22;33280;52.152;21.052;2022-09-09T03:29:12;11.60;99.90
47540;DHT22;33280;52.152;21.052;2022-09-09T03:31:39;11.60;99.90
47540;DHT22;33280;52.152;21.052;2022-09-09T03:34:06;11.60;99.90
47540;DHT22;33280;52.152;21.052;2022-09-09T03:36:33;11.70;99.90
47540;DHT22;33280;52.152;21.052;2022-09-09T03:39:16;11.70;99.90
47540;DHT22;33280;52.152;21.052;2022-09-09T03:41:42;11.70;99.90
47540;DHT22;33280;52.152;21.052;2022-09-09T03:44:12;11.70;99.90
47540;DHT22;33280;52.152;21.052;2022-09-09T03:46:39;11.70;99.90
47540;DHT22;33280;52.152;21.052;2022-09-09T03:49:07;11.60;99.90
47540;DHT22;33280;52.152;21.052;2022-09-09T03:51:36;11.70;99.90
47540;DHT22;33280;52.152;21.052;2022-09-09T03:54:05;11.70;99.90
47540;DHT22;33280;52.152;21.052;2022-09-09T03:56:35;11.70;99.90
47540;DHT22;33280;52.152;21.052;2022-09-09T03:59:03;11.70;99.90
47540;DHT22;33280;52.152;21.052;2022-09-09T04:01:30;11.60;99.90
47540;DHT22;33280;52.152;21.052;2022-09-09T04:03:57;11.70;99.90
47540;DHT22;33280;52.152;21.052;2022-09-09T04:06:25;11.70;99.90
47540;DHT22;33280;52.152;21.052;2022-09-09T04:08:52;11.80;99.90
47540;DHT22;33280;52.152;21.052;2022-09-09T04:11:19;11.80;99.90
47540;DHT22;33280;52.152;21.052;2022-09-09T04:13:47;11.80;99.90
47540;DHT22;33280;52.152;21.052;2022-09-09T04:16:15;11.80;99.90
47540;DHT22;33280;52.152;21.052;2022-09-09T04:18:43;11.80;99.90
47540;DHT22;33280;52.152;21.052;2022-09-09T04:21:10;11.80;99.90
47540;DHT22;33280;52.152;21.052;2022-09-09T04:23:40;11.80;99.90
47540;DHT22;33280;52.152;21.052;2022-09-09T04:26:07;11.80;99.90
47540;DHT22;33280;52.152;21.052;2022-09-09T04:28:39;11.80;99.90
47540;DHT22;33280;52.152;21.052;2022-09-09T04:31:18;11.80;99.90
47540;DHT22;33280;52.152;21.052;2022-09-09T04:33:59;11.80;99.90
47540;DHT22;33280;52.152;21.052;2022-09-09T04:36:32;11.80;99.90
47540;DHT22;33280;52.152;21.052;2022-09-09T04:39:22;11.90;99.90
47540;DHT22;33280;52.152;21.052;2022-09-09T04:41:49;11.80;99.90
47540;DHT22;33280;52.152;21.052;2022-09-09T04:44:16;11.80;99.90
47540;DHT22;33280;52.152;21.052;2022-09-09T04:46:43;11.80;99.90
47540;DHT22;33280;52.152;21.052;2022-09-09T04:49:24;11.90;99.90
47540;DHT22;33280;52.152;21.052;2022-09-09T04:51:50;11.90;99.90
47540;DHT22;33280;52.152;21.052;2022-09-09T04:54:17;11.90;99.90
47540;DHT22;33280;52.152;21.052;2022-09-09T04:56:44;11.90;99.90
47540;DHT22;33280;52.152;21.052;2022-09-09T04:59:11;12.00;99.90
47540;DHT22;33280;52.152;21.052;2022-09-09T05:01:52;11.90;99.90
47540;DHT22;33280;52.152;21.052;2022-09-09T05:04:21;12.00;99.90
47540;DHT22;33280;52.152;21.052;2022-09-09T05:15:54;12.10;99.90
47540;DHT22;33280;52.152;21.052;2022-09-09T05:18:21;12.10;99.90
47540;DHT22;33280;52.152;21.052;2022-09-09T05:20:49;12.00;99.90
47540;DHT22;33280;52.152;21.052;2022-09-09T05:23:17;12.10;99.90
47540;DHT22;33280;52.152;21.052;2022-09-09T05:26:14;12.10;99.90
47540;DHT22;33280;52.152;21.052;2022-09-09T05:28:44;12.00;99.90
47540;DHT22;33280;52.152;21.052;2022-09-09T05:31:21;12.10;99.90
47540;DHT22;33280;52.152;21.052;2022-09-09T05:33:48;12.10;99.90
47540;DHT22;33280;52.152;21.052;2022-09-09T05:36:18;12.10;99.90
47540;DHT22;33280;52.152;21.052;2022-09-09T05:38:58;12.10;99.90
47540;DHT22;33280;52.152;21.052;2022-09-09T05:41:28;12.10;99.90
47540;DHT22;33280;52.152;21.052;2022-09-09T05:43:56;12.10;99.90
47540;DHT22;33280;52.152;21.052;2022-09-09T05:46:26;12.10;99.90
47540;DHT22;33280;52.152;21.052;2022-09-09T05:48:54;12.20;99.90
47540;DHT22;33280;52.152;21.052;2022-09-09T05:51:23;12.20;99.90
47540;DHT22;33280;52.152;21.052;2022-09-09T05:53:59;12.20;99.90
47540;DHT22;33280;52.152;21.052;2022-09-09T05:56:28;12.20;99.90
47540;DHT22;33280;52.152;21.052;2022-09-09T05:58:55;12.20;99.90
47540;DHT22;33280;52.152;21.052;2022-09-09T06:03:51;12.30;99.90
47540;DHT22;33280;52.152;21.052;2022-09-09T06:06:21;12.30;99.90
47540;DHT22;33280;52.152;21.052;2022-09-09T06:08:50;12.30;99.90
47540;DHT22;33280;52.152;21.052;2022-09-09T06:11:20;12.30;99.90
47540;DHT22;33280;52.152;21.052;2022-09-09T06:13:49;12.30;99.90
47540;DHT22;33280;52.152;21.052;2022-09-09T06:16:19;12.30;99.90
47540;DHT22;33280;52.152;21.052;2022-09-09T06:18:46;12.30;99.90
47540;DHT22;33280;52.152;21.052;2022-09-09T06:21:17;12.30;99.90
47540;DHT22;33280;52.152;21.052;2022-09-09T06:23:45;12.40;99.90
47540;DHT22;33280;52.152;21.052;2022-09-09T06:26:16;12.40;99.90
47540;DHT22;33280;52.152;21.052;2022-09-09T06:28:47;12.40;99.90
47540;DHT22;33280;52.152;21.052;2022-09-09T06:31:16;12.40;99.90
47540;DHT22;33280;52.152;21.052;2022-09-09T06:33:57;12.40;99.90
47540;DHT22;33280;52.152;21.052;2022-09-09T06:36:25;12.40;99.90
47540;DHT22;33280;52.152;21.052;2022-09-09T06:38:53;12.40;99.90
47540;DHT22;33280;52.152;21.052;2022-09-09T06:41:21;12.40;99.90
47540;DHT22;33280;52.152;21.052;2022-09-09T06:43:49;12.50;99.90
47540;DHT22;33280;52.152;21.052;2022-09-09T06:46:27;12.50;99.90
47540;DHT22;33280;52.152;21.052;2022-09-09T06:48:56;12.40;99.90
47540;DHT22;33280;52.152;21.052;2022-09-09T06:51:28;12.50;99.90
47540;DHT22;33280;52.152;21.052;2022-09-09T06:53:58;12.40;99.90
47540;DHT22;33280;52.152;21.052;2022-09-09T06:56:31;12.50;99.90
47540;DHT22;33280;52.152;21.052;2022-09-09T06:59:00;12.50;99.90
47540;DHT22;33280;52.152;21.052;2022-09-09T07:01:36;12.50;99.90
47540;DHT22;33280;52.152;21.052;2022-09-09T07:04:04;12.60;99.90
47540;DHT22;33280;52.152;21.052;2022-09-09T07:06:45;12.60;99.90
47540;DHT22;33280;52.152;21.052;2022-09-09T07:09:14;12.60;99.90
47540;DHT22;33280;52.152;21.052;2022-09-09T07:11:44;12.70;99.90
47540;DHT22;33280;52.152;21.052;2022-09-09T07:14:12;12.70;99.90
47540;DHT22;33280;52.152;21.052;2022-09-09T07:16:41;12.80;99.90
47540;DHT22;33280;52.152;21.052;2022-09-09T07:19:09;12.80;99.90
47540;DHT22;33280;52.152;21.052;2022-09-09T07:21:38;12.70;99.90
47540;DHT22;33280;52.152;21.052;2022-09-09T07:27:00;12.70;99.90
47540;DHT22;33280;52.152;21.052;2022-09-09T07:29:36;12.70;99.90
47540;DHT22;33280;52.152;21.052;2022-09-09T07:36:38;12.80;99.90
47540;DHT22;33280;52.152;21.052;2022-09-09T07:39:08;12.80;99.90
47540;DHT22;33280;52.152;21.052;2022-09-09T07:49:00;13.00;99.90
47540;DHT22;33280;52.152;21.052;2022-09-09T07:51:30;13.00;99.90
47540;DHT22;33280;52.152;21.052;2022-09-09T07:54:05;12.90;99.90
47540;DHT22;33280;52.152;21.052;2022-09-09T07:56:39;13.00;99.90
47540;DHT22;33280;52.152;21.052;2022-09-09T07:59:07;12.90;99.90
47540;DHT22;33280;52.152;21.052;2022-09-09T08:01:37;13.00;99.90
47540;DHT22;33280;52.152;21.052;2022-09-09T08:04:11;12.90;99.90
47540;DHT22;33280;52.152;21.052;2022-09-09T08:12:50;13.00;99.90
47540;DHT22;33280;52.152;21.052;2022-09-09T08:15:40;13.10;99.90
47540;DHT22;33280;52.152;21.052;2022-09-09T08:18:20;13.00;99.90
47540;DHT22;33280;52.152;21.052;2022-09-09T08:21:27;13.00;99.90
47540;DHT22;33280;52.152;21.052;2022-09-09T08:26:40;13.00;99.90
47540;DHT22;33280;52.152;21.052;2022-09-09T08:29:12;13.10;99.90
47540;DHT22;33280;52.152;21.052;2022-09-09T08:31:43;13.10;99.90
47540;DHT22;33280;52.152;21.052;2022-09-09T08:34:11;13.10;99.90
47540;DHT22;33280;52.152;21.052;2022-09-09T08:36:44;13.10;99.90
47540;DHT22;33280;52.152;21.052;2022-09-09T08:39:14;13.20;99.90
47540;DHT22;33280;52.152;21.052;2022-09-09T08:55:05;13.40;99.90
47540;DHT22;33280;52.152;21.052;2022-09-09T09:05:36;13.70;99.90
47540;DHT22;33280;52.152;21.052;2022-09-09T09:10:49;13.70;99.90
47540;DHT22;33280;52.152;21.052;2022-09-09T09:19:50;13.90;99.90
47540;DHT22;33280;52.152;21.052;2022-09-09T09:22:21;13.80;99.90
47540;DHT22;33280;52.152;21.052;2022-09-09T09:29:56;13.90;99.90
47540;DHT22;33280;52.152;21.052;2022-09-09T09:32:55;13.90;99.90
47540;DHT22;33280;52.152;21.052;2022-09-09T09:35:22;13.80;99.90
47540;DHT22;33280;52.152;21.052;2022-09-09T09:37:50;13.90;99.90
47540;DHT22;33280;52.152;21.052;2022-09-09T09:40:54;14.00;99.90
47540;DHT22;33280;52.152;21.052;2022-09-09T09:43:37;14.00;99.90
47540;DHT22;33280;52.152;21.052;2022-09-09T09:46:19;14.00;99.90
47540;DHT22;33280;52.152;21.052;2022-09-09T09:48:57;14.10;99.90
47540;DHT22;33280;52.152;21.052;2022-09-09T09:51:24;14.10;99.90
47540;DHT22;33280;52.152;21.052;2022-09-09T09:53:52;14.20;99.90
47540;DHT22;33280;52.152;21.052;2022-09-09T09:56:27;14.10;99.90
47540;DHT22;33280;52.152;21.052;2022-09-09T09:59:00;14.10;99.90
47540;DHT22;33280;52.152;21.052;2022-09-09T10:01:46;14.10;99.90
47540;DHT22;33280;52.152;21.052;2022-09-09T10:04:42;14.20;99.90
47540;DHT22;33280;52.152;21.052;2022-09-09T10:07:13;14.30;99.90
47540;DHT22;33280;52.152;21.052;2022-09-09T10:09:55;14.30;99.90
47540;DHT22;33280;52.152;21.052;2022-09-09T10:21:20;14.20;99.90
47540;DHT22;33280;52.152;21.052;2022-09-09T11:01:03;14.30;99.90
47540;DHT22;33280;52.152;21.052;2022-09-09T11:03:35;14.30;99.90
47540;DHT22;33280;52.152;21.052;2022-09-09T11:09:26;14.40;99.90
47540;DHT22;33280;52.152;21.052;2022-09-09T11:12:25;14.40;99.90
47540;DHT22;33280;52.152;21.052;2022-09-09T11:15:21;14.40;99.90
47540;DHT22;33280;52.152;21.052;2022-09-09T11:18:17;14.40;99.90
47540;DHT22;33280;52.152;21.052;2022-09-09T11:21:15;14.60;99.90
47540;DHT22;33280;52.152;21.052;2022-09-09T11:26:43;14.60;99.90
47540;DHT22;33280;52.152;21.052;2022-09-09T11:41:42;14.60;99.90
47540;DHT22;33280;52.152;21.052;2022-09-09T11:44:16;14.60;99.90
47540;DHT22;33280;52.152;21.052;2022-09-09T11:46:55;14.70;99.90
47540;DHT22;33280;52.152;21.052;2022-09-09T11:49:42;14.70;99.90
47540;DHT22;33280;52.152;21.052;2022-09-09T11:52:39;14.90;99.90
47540;DHT22;33280;52.152;21.052;2022-09-09T11:55:10;14.90;99.90
47540;DHT22;33280;52.152;21.052;2022-09-09T11:57:39;15.00;99.90
47540;DHT22;33280;52.152;21.052;2022-09-09T12:00:06;15.10;99.90
47540;DHT22;33280;52.152;21.052;2022-09-09T12:02:33;15.10;99.90
47540;DHT22;33280;52.152;21.052;2022-09-09T12:05:08;15.10;99.90
47540;DHT22;33280;52.152;21.052;2022-09-09T12:07:45;15.10;99.90
47540;DHT22;33280;52.152;21.052;2022-09-09T12:10:34;15.10;99.90
47540;DHT22;33280;52.152;21.052;2022-09-09T12:25:03;15.00;99.90
47540;DHT22;33280;52.152;21.052;2022-09-09T12:58:06;15.30;99.90
47540;DHT22;33280;52.152;21.052;2022-09-09T13:00:34;15.30;99.90
47540;DHT22;33280;52.152;21.052;2022-09-09T13:03:16;15.30;99.90
47540;DHT22;33280;52.152;21.052;2022-09-09T13:05:44;15.30;99.90
47540;DHT22;33280;52.152;21.052;2022-09-09T13:08:24;15.30;99.90
47540;DHT22;33280;52.152;21.052;2022-09-09T13:49:40;14.80;99.90
47540;DHT22;33280;52.152;21.052;2022-09-09T13:52:30;14.80;99.90
47540;DHT22;33280;52.152;21.052;2022-09-09T14:02:16;14.70;99.90
47540;DHT22;33280;52.152;21.052;2022-09-09T14:44:00;14.70;99.90
47540;DHT22;33280;52.152;21.052;2022-09-09T14:51:52;14.90;99.90
47540;DHT22;33280;52.152;21.052;2022-09-09T14:58:13;15.00;99.90
47540;DHT22;33280;52.152;21.052;2022-09-09T15:15:01;15.30;99.90
47540;DHT22;33280;52.152;21.052;2022-09-09T15:17:43;15.20;99.90
47540;DHT22;33280;52.152;21.052;2022-09-09T15:23:42;15.10;99.90
47540;DHT22;33280;52.152;21.052;2022-09-09T15:26:10;15.20;99.90
47540;DHT22;33280;52.152;21.052;2022-09-09T15:28:41;15.20;99.90
47540;DHT22;33280;52.152;21.052;2022-09-09T15:31:25;15.30;99.90
47540;DHT22;33280;52.152;21.052;2022-09-09T15:34:05;15.20;99.90
47540;DHT22;33280;52.152;21.052;2022-09-09T15:36:41;15.20;99.90
47540;DHT22;33280;52.152;21.052;2022-09-09T15:39:11;15.20;99.90
47540;DHT22;33280;52.152;21.052;2022-09-09T15:41:56;15.20;99.90
47540;DHT22;33280;52.152;21.052;2022-09-09T15:44:23;15.20;99.90
47540;DHT22;33280;52.152;21.052;2022-09-09T15:47:04;15.10;99.90
47540;DHT22;33280;52.152;21.052;2022-09-09T15:49:32;15.10;99.90
47540;DHT22;33280;52.152;21.052;2022-09-09T15:51:59;15.10;99.90
47540;DHT22;33280;52.152;21.052;2022-09-09T15:55:07;15.20;99.90
47540;DHT22;33280;52.152;21.052;2022-09-09T15:58:18;15.30;99.90
47540;DHT22;33280;52.152;21.052;2022-09-09T16:00:48;15.40;99.90
47540;DHT22;33280;52.152;21.052;2022-09-09T16:06:41;15.20;99.90
47540;DHT22;33280;52.152;21.052;2022-09-09T16:10:01;15.20;99.90
47540;DHT22;33280;52.152;21.052;2022-09-09T16:13:00;15.10;99.90
47540;DHT22;33280;52.152;21.052;2022-09-09T16:15:45;15.20;99.90
47540;DHT22;33280;52.152;21.052;2022-09-09T16:21:34;15.20;99.90
47540;DHT22;33280;52.152;21.052;2022-09-09T16:24:15;15.10;99.90
47540;DHT22;33280;52.152;21.052;2022-09-09T16:29:27;15.00;99.90
47540;DHT22;33280;52.152;21.052;2022-09-09T16:32:01;15.00;99.90
47540;DHT22;33280;52.152;21.052;2022-09-09T16:34:30;15.00;99.90
47540;DHT22;33280;52.152;21.052;2022-09-09T16:39:38;15.00;99.90
47540;DHT22;33280;52.152;21.052;2022-09-09T16:42:05;15.00;99.90
47540;DHT22;33280;52.152;21.052;2022-09-09T16:44:32;15.00;99.90
47540;DHT22;33280;52.152;21.052;2022-09-09T16:46:59;15.00;99.90
47540;DHT22;33280;52.152;21.052;2022-09-09T16:49:27;15.00;99.90
47540;DHT22;33280;52.152;21.052;2022-09-09T16:51:57;15.00;99.90
47540;DHT22;33280;52.152;21.052;2022-09-09T16:54:24;15.00;99.90
47540;DHT22;33280;52.152;21.052;2022-09-09T16:56:59;14.90;99.90
47540;DHT22;33280;52.152;21.052;2022-09-09T16:59:26;14.90;99.90
47540;DHT22;33280;52.152;21.052;2022-09-09T17:02:08;14.80;99.90
47540;DHT22;33280;52.152;21.052;2022-09-09T17:04:35;14.70;99.90
47540;DHT22;33280;52.152;21.052;2022-09-09T17:07:02;14.60;99.90
47540;DHT22;33280;52.152;21.052;2022-09-09T17:09:31;14.60;99.90
47540;DHT22;33280;52.152;21.052;2022-09-09T17:12:07;14.50;99.90
47540;DHT22;33280;52.152;21.052;2022-09-09T17:14:50;14.50;99.90
47540;DHT22;33280;52.152;21.052;2022-09-09T17:17:17;14.50;99.90
47540;DHT22;33280;52.152;21.052;2022-09-09T17:19:59;14.50;99.90
47540;DHT22;33280;52.152;21.052;2022-09-09T17:23:43;14.50;99.90
47540;DHT22;33280;52.152;21.052;2022-09-09T17:32:04;14.40;99.90
47540;DHT22;33280;52.152;21.052;2022-09-09T17:34:35;14.40;99.90
47540;DHT22;33280;52.152;21.052;2022-09-09T17:37:02;14.30;99.90
47540;DHT22;33280;52.152;21.052;2022-09-09T17:40:07;14.40;99.90
47540;DHT22;33280;52.152;21.052;2022-09-09T17:46:33;14.40;99.90
47540;DHT22;33280;52.152;21.052;2022-09-09T17:52:04;14.20;99.90
47540;DHT22;33280;52.152;21.052;2022-09-09T17:54:34;14.10;99.90
47540;DHT22;33280;52.152;21.052;2022-09-09T18:03:50;14.10;99.90
47540;DHT22;33280;52.152;21.052;2022-09-09T18:06:38;14.10;99.90
47540;DHT22;33280;52.152;21.052;2022-09-09T18:11:59;14.10;99.90
47540;DHT22;33280;52.152;21.052;2022-09-09T18:15:30;14.10;99.90
47540;DHT22;33280;52.152;21.052;2022-09-09T18:18:24;14.10;99.90
47540;DHT22;33280;52.152;21.052;2022-09-09T18:21:09;14.00;99.90
47540;DHT22;33280;52.152;21.052;2022-09-09T18:24:19;14.00;99.90
47540;DHT22;33280;52.152;21.052;2022-09-09T18:26:59;14.00;99.90
47540;DHT22;33280;52.152;21.052;2022-09-09T18:29:27;14.00;99.90
47540;DHT22;33280;52.152;21.052;2022-09-09T18:32:25;13.90;99.90
47540;DHT22;33280;52.152;21.052;2022-09-09T18:35:18;14.00;99.90
47540;DHT22;33280;52.152;21.052;2022-09-09T18:37:51;13.90;99.90
47540;DHT22;33280;52.152;21.052;2022-09-09T18:40:20;13.90;99.90
47540;DHT22;33280;52.152;21.052;2022-09-09T18:42:50;13.90;99.90
47540;DHT22;33280;52.152;21.052;2022-09-09T18:45:17;13.90;99.90
47540;DHT22;33280;52.152;21.052;2022-09-09T18:47:46;14.00;99.90
47540;DHT22;33280;52.152;21.052;2022-09-09T18:51:05;14.00;99.90
47540;DHT22;33280;52.152;21.052;2022-09-09T18:54:24;14.00;99.90
47540;DHT22;33280;52.152;21.052;2022-09-09T18:56:52;14.00;99.90
47540;DHT22;33280;52.152;21.052;2022-09-09T18:59:48;14.00;99.90
47540;DHT22;33280;52.152;21.052;2022-09-09T19:02:15;13.90;99.90
47540;DHT22;33280;52.152;21.052;2022-09-09T19:04:42;13.90;99.90
47540;DHT22;33280;52.152;21.052;2022-09-09T19:07:12;14.00;99.90
47540;DHT22;33280;52.152;21.052;2022-09-09T19:09:57;14.00;99.90
47540;DHT22;33280;52.152;21.052;2022-09-09T19:12:30;14.00;99.90
47540;DHT22;33280;52.152;21.052;2022-09-09T19:15:20;13.90;99.90
47540;DHT22;33280;52.152;21.052;2022-09-09T19:17:47;13.90;99.90
47540;DHT22;33280;52.152;21.052;2022-09-09T19:20:26;13.90;99.90
47540;DHT22;33280;52.152;21.052;2022-09-09T19:23:08;13.90;99.90
47540;DHT22;33280;52.152;21.052;2022-09-09T19:25:48;13.90;99.90
47540;DHT22;33280;52.152;21.052;2022-09-09T19:31:08;13.90;99.90
47540;DHT22;33280;52.152;21.052;2022-09-09T19:40:26;14.00;99.90
47540;DHT22;33280;52.152;21.052;2022-09-09T19:53:07;13.90;99.90
47540;DHT22;33280;52.152;21.052;2022-09-09T20:06:37;13.70;99.90
47540;DHT22;33280;52.152;21.052;2022-09-09T20:09:07;13.70;99.90
47540;DHT22;33280;52.152;21.052;2022-09-09T20:11:35;13.60;99.90
47540;DHT22;33280;52.152;21.052;2022-09-09T20:14:07;13.60;99.90
47540;DHT22;33280;52.152;21.052;2022-09-09T20:16:46;13.70;99.90
47540;DHT22;33280;52.152;21.052;2022-09-09T20:19:54;13.60;99.90
47540;DHT22;33280;52.152;21.052;2022-09-09T20:22:36;13.70;99.90
47540;DHT22;33280;52.152;21.052;2022-09-09T20:25:39;13.70;99.90
47540;DHT22;33280;52.152;21.052;2022-09-09T20:28:36;13.70;99.90
47540;DHT22;33280;52.152;21.052;2022-09-09T20:31:05;13.80;99.90
47540;DHT22;33280;52.152;21.052;2022-09-09T20:33:33;13.70;99.90
47540;DHT22;33280;52.152;21.052;2022-09-09T20:36:12;13.70;99.90
47540;DHT22;33280;52.152;21.052;2022-09-09T20:38:45;13.70;99.90
47540;DHT22;33280;52.152;21.052;2022-09-09T20:41:21;13.80;99.90
47540;DHT22;33280;52.152;21.052;2022-09-09T20:43:57;13.80;99.90
47540;DHT22;33280;52.152;21.052;2022-09-09T20:52:44;13.90;99.90
47540;DHT22;33280;52.152;21.052;2022-09-09T20:56:10;13.90;99.90
47540;DHT22;33280;52.152;21.052;2022-09-09T21:02:54;13.80;99.90
47540;DHT22;33280;52.152;21.052;2022-09-09T21:06:06;13.80;99.90
47540;DHT22;33280;52.152;21.052;2022-09-09T21:08:51;13.80;99.90
47540;DHT22;33280;52.152;21.052;2022-09-09T21:11:41;13.80;99.90
47540;DHT22;33280;52.152;21.052;2022-09-09T21:14:09;13.70;99.90
47540;DHT22;33280;52.152;21.052;2022-09-09T21:16:36;13.70;99.90
47540;DHT22;33280;52.152;21.052;2022-09-09T21:19:05;13.80;99.90
47540;DHT22;33280;52.152;21.052;2022-09-09T21:21:32;13.80;99.90
47540;DHT22;33280;52.152;21.052;2022-09-09T21:23:59;13.80;99.90
47540;DHT22;33280;52.152;21.052;2022-09-09T21:26:27;13.80;99.90
47540;DHT22;33280;52.152;21.052;2022-09-09T21:28:56;13.80;99.90
47540;DHT22;33280;52.152;21.052;2022-09-09T21:35:24;13.80;99.90
47540;DHT22;33280;52.152;21.052;2022-09-09T21:38:25;13.80;99.90
47540;DHT22;33280;52.152;21.052;2022-09-09T21:46:51;13.70;99.90
47540;DHT22;33280;52.152;21.052;2022-09-09T21:50:00;13.70;99.90
47540;DHT22;33280;52.152;21.052;2022-09-09T21:52:53;13.60;99.90
47540;DHT22;33280;52.152;21.052;2022-09-09T21:55:21;13.70;99.90
47540;DHT22;33280;52.152;21.052;2022-09-09T21:58:00;13.60;99.90
47540;DHT22;33280;52.152;21.052;2022-09-09T22:00:27;13.60;99.90
47540;DHT22;33280;52.152;21.052;2022-09-09T22:02:54;13.70;99.90
47540;DHT22;33280;52.152;21.052;2022-09-09T22:05:20;13.60;99.90
47540;DHT22;33280;52.152;21.052;2022-09-09T22:07:47;13.60;99.90
47540;DHT22;33280;52.152;21.052;2022-09-09T22:10:14;13.70;99.90
47540;DHT22;33280;52.152;21.052;2022-09-09T22:12:41;13.70;99.90
47540;DHT22;33280;52.152;21.052;2022-09-09T22:15:11;13.70;99.90
47540;DHT22;33280;52.152;21.052;2022-09-09T22:29:34;13.60;99.90
47540;DHT22;33280;52.152;21.052;2022-09-09T22:32:01;13.60;99.90
47540;DHT22;33280;52.152;21.052;2022-09-09T22:34:28;13.60;99.90
47540;DHT22;33280;52.152;21.052;2022-09-09T22:37:05;13.50;99.90
47540;DHT22;33280;52.152;21.052;2022-09-09T22:39:46;13.40;99.90
47540;DHT22;33280;52.152;21.052;2022-09-09T22:42:17;13.40;99.90
47540;DHT22;33280;52.152;21.052;2022-09-09T22:44:45;13.40;99.90
47540;DHT22;33280;52.152;21.052;2022-09-09T22:47:15;13.40;99.90
47540;DHT22;33280;52.152;21.052;2022-09-09T22:49:42;13.40;99.90
47540;DHT22;33280;52.152;21.052;2022-09-09T22:55:14;13.40;99.90
47540;DHT22;33280;52.152;21.052;2022-09-09T22:57:41;13.30;99.90
47540;DHT22;33280;52.152;21.052;2022-09-09T23:00:24;13.30;99.90
47540;DHT22;33280;52.152;21.052;2022-09-09T23:02:57;13.20;99.90
47540;DHT22;33280;52.152;21.052;2022-09-09T23:05:59;13.30;99.90
47540;DHT22;33280;52.152;21.052;2022-09-09T23:09:32;13.20;99.90
47540;DHT22;33280;52.152;21.052;2022-09-09T23:21:29;13.20;99.90
47540;DHT22;33280;52.152;21.052;2022-09-09T23:24:04;13.20;99.90
47540;DHT22;33280;52.152;21.052;2022-09-09T23:27:10;13.20;99.90
47540;DHT22;33280;52.152;21.052;2022-09-09T23:29:52;13.10;99.90
47540;DHT22;33280;52.152;21.052;2022-09-09T23:32:19;13.20;99.90
47540;DHT22;33280;52.152;21.052;2022-09-09T23:34:46;13.10;99.90